Plessisville, Canada
Current Conditions -  °F | °C
As of 7:00 AM on Wednesday 26 Nov 2014 (Local Time) from CYQB Reporting Station
Broken Clouds Broken Clouds  
Wind Chill: 25°   Ceiling: 18000
Heat Index: 30°   Visibility: 20mi
Dew Point: 25°   Wind: 5mph
Humidity: 80%   Direction: 250°WSW
Pressure: 30.19"   Gusts: NA
Location:  46.22°N, 71.77°W
Report Text: CYQB 261200Z 25004KT 20SM SCT038 BKN180 BKN240 M01/M04 A3019 RMK SC4AC1CI2 SLP226
Loading
Personal Weather Stations






























Interactive Weather Map New forecast layout! Learn more

10-Day Weather Forecast

Advertisements
Track Severe Weather on mobile